Braden, Tennessee
Current Conditions -  °F | °C
As of 2:50 PM on Friday 31 Oct 2014 (Local Time) from KNQA Reporting Station
Broken Clouds Broken Clouds  
Wind Chill: 57°   Ceiling: 5000
Heat Index: 57°   Visibility: 10mi
Dew Point: 43°   Wind: 8mph
Humidity: 59%   Direction: 330°NNW
Pressure: 30.14"   Gusts: NA
Location:  35.38°N, 89.57°W
Report Text: KNQA 311950Z 33007KT 10SM SCT040 BKN050 14/06 A3014
Loading
Personal Weather Stations






























Interactive Weather Map
Tropical Storm Tracking
New forecast layout! Learn more

10-Day Weather Forecast

Advertisements
Track Severe Weather on mobile